sensor_id;sensor_type;location;lat;lon;timestamp;P1;durP1;ratioP1;P2;durP2;ratioP2
53931;SDS011;39844;52.496;13.482;2022-09-09T00:09:51;2.23;;;2.13;;
53931;SDS011;39844;52.496;13.482;2022-09-09T00:15:00;2.90;;;2.70;;
53931;SDS011;39844;52.496;13.482;2022-09-09T00:20:12;2.63;;;2.43;;
53931;SDS011;39844;52.496;13.482;2022-09-09T00:22:43;3.60;;;2.83;;
53931;SDS011;39844;52.496;13.482;2022-09-09T00:25:15;2.60;;;2.40;;
53931;SDS011;39844;52.496;13.482;2022-09-09T00:27:49;2.67;;;2.47;;
53931;SDS011;39844;52.496;13.482;2022-09-09T00:30:17;2.97;;;2.77;;
53931;SDS011;39844;52.496;13.482;2022-09-09T00:32:45;2.97;;;2.77;;
53931;SDS011;39844;52.496;13.482;2022-09-09T00:37:50;2.57;;;2.40;;
53931;SDS011;39844;52.496;13.482;2022-09-09T00:40:33;2.40;;;2.20;;
53931;SDS011;39844;52.496;13.482;2022-09-09T00:49:11;2.43;;;2.33;;
53931;SDS011;39844;52.496;13.482;2022-09-09T00:51:49;2.10;;;2.00;;
53931;SDS011;39844;52.496;13.482;2022-09-09T00:57:51;2.10;;;2.00;;
53931;SDS011;39844;52.496;13.482;2022-09-09T01:00:21;2.23;;;2.10;;
53931;SDS011;39844;52.496;13.482;2022-09-09T01:03:02;2.67;;;2.47;;
53931;SDS011;39844;52.496;13.482;2022-09-09T01:08:39;1.80;;;1.70;;
53931;SDS011;39844;52.496;13.482;2022-09-09T01:11:37;2.27;;;2.13;;
53931;SDS011;39844;52.496;13.482;2022-09-09T01:14:31;1.93;;;1.83;;
53931;SDS011;39844;52.496;13.482;2022-09-09T01:17:04;2.60;;;2.40;;
53931;SDS011;39844;52.496;13.482;2022-09-09T01:19:45;2.10;;;2.00;;
53931;SDS011;39844;52.496;13.482;2022-09-09T01:22:18;2.30;;;2.20;;
53931;SDS011;39844;52.496;13.482;2022-09-09T01:27:53;2.23;;;2.13;;
53931;SDS011;39844;52.496;13.482;2022-09-09T01:30:22;2.30;;;2.10;;
53931;SDS011;39844;52.496;13.482;2022-09-09T01:32:53;2.37;;;2.17;;
53931;SDS011;39844;52.496;13.482;2022-09-09T01:38:13;2.10;;;2.00;;
53931;SDS011;39844;52.496;13.482;2022-09-09T01:40:40;2.00;;;1.90;;
53931;SDS011;39844;52.496;13.482;2022-09-09T01:43:05;2.30;;;2.10;;
53931;SDS011;39844;52.496;13.482;2022-09-09T01:45:32;2.20;;;2.00;;
53931;SDS011;39844;52.496;13.482;2022-09-09T01:47:58;2.03;;;1.93;;
53931;SDS011;39844;52.496;13.482;2022-09-09T01:50:24;2.57;;;2.37;;
53931;SDS011;39844;52.496;13.482;2022-09-09T01:52:52;2.50;;;2.30;;
53931;SDS011;39844;52.496;13.482;2022-09-09T01:55:26;2.23;;;2.03;;
53931;SDS011;39844;52.496;13.482;2022-09-09T02:00:23;2.40;;;2.20;;
53931;SDS011;39844;52.496;13.482;2022-09-09T02:03:00;2.13;;;2.03;;
53931;SDS011;39844;52.496;13.482;2022-09-09T02:05:35;2.63;;;2.27;;
53931;SDS011;39844;52.496;13.482;2022-09-09T02:08:15;2.40;;;2.20;;
53931;SDS011;39844;52.496;13.482;2022-09-09T02:13:24;2.27;;;2.10;;
53931;SDS011;39844;52.496;13.482;2022-09-09T02:15:58;2.23;;;2.13;;
53931;SDS011;39844;52.496;13.482;2022-09-09T02:18:30;2.30;;;2.10;;
53931;SDS011;39844;52.496;13.482;2022-09-09T02:21:02;2.20;;;2.10;;
53931;SDS011;39844;52.496;13.482;2022-09-09T02:23:28;2.27;;;2.07;;
53931;SDS011;39844;52.496;13.482;2022-09-09T02:25:53;2.77;;;2.50;;
53931;SDS011;39844;52.496;13.482;2022-09-09T02:28:21;5.57;;;2.27;;
53931;SDS011;39844;52.496;13.482;2022-09-09T02:30:50;1.90;;;1.80;;
53931;SDS011;39844;52.496;13.482;2022-09-09T02:33:19;1.97;;;1.87;;
53931;SDS011;39844;52.496;13.482;2022-09-09T02:35:49;2.10;;;2.00;;
53931;SDS011;39844;52.496;13.482;2022-09-09T02:38:17;2.50;;;2.30;;
53931;SDS011;39844;52.496;13.482;2022-09-09T02:40:45;2.40;;;2.20;;
53931;SDS011;39844;52.496;13.482;2022-09-09T02:43:11;2.07;;;1.97;;
53931;SDS011;39844;52.496;13.482;2022-09-09T02:45:38;1.80;;;1.70;;
53931;SDS011;39844;52.496;13.482;2022-09-09T02:51:08;2.00;;;1.90;;
53931;SDS011;39844;52.496;13.482;2022-09-09T02:56:42;2.07;;;1.90;;
53931;SDS011;39844;52.496;13.482;2022-09-09T02:59:14;2.40;;;1.77;;
53931;SDS011;39844;52.496;13.482;2022-09-09T03:01:40;2.10;;;2.00;;
53931;SDS011;39844;52.496;13.482;2022-09-09T03:04:06;2.30;;;2.13;;
53931;SDS011;39844;52.496;13.482;2022-09-09T03:06:31;2.30;;;2.10;;
53931;SDS011;39844;52.496;13.482;2022-09-09T03:08:56;2.00;;;1.90;;
53931;SDS011;39844;52.496;13.482;2022-09-09T03:11:25;2.90;;;2.00;;
53931;SDS011;39844;52.496;13.482;2022-09-09T03:13:52;1.93;;;1.83;;
53931;SDS011;39844;52.496;13.482;2022-09-09T03:16:18;2.00;;;1.90;;
53931;SDS011;39844;52.496;13.482;2022-09-09T03:18:43;2.27;;;2.07;;
53931;SDS011;39844;52.496;13.482;2022-09-09T03:21:10;1.83;;;1.73;;
53931;SDS011;39844;52.496;13.482;2022-09-09T03:23:36;4.00;;;2.50;;
53931;SDS011;39844;52.496;13.482;2022-09-09T03:26:01;2.17;;;2.07;;
53931;SDS011;39844;52.496;13.482;2022-09-09T03:28:26;2.73;;;1.80;;
53931;SDS011;39844;52.496;13.482;2022-09-09T03:31:02;1.80;;;1.70;;
53931;SDS011;39844;52.496;13.482;2022-09-09T03:33:29;1.80;;;1.70;;
53931;SDS011;39844;52.496;13.482;2022-09-09T03:35:56;2.00;;;1.90;;
53931;SDS011;39844;52.496;13.482;2022-09-09T03:38:25;2.17;;;2.07;;
53931;SDS011;39844;52.496;13.482;2022-09-09T03:40:51;2.33;;;2.13;;
53931;SDS011;39844;52.496;13.482;2022-09-09T03:43:20;2.30;;;2.17;;
53931;SDS011;39844;52.496;13.482;2022-09-09T03:45:46;1.93;;;1.83;;
53931;SDS011;39844;52.496;13.482;2022-09-09T03:48:12;1.90;;;1.80;;
53931;SDS011;39844;52.496;13.482;2022-09-09T03:50:38;2.13;;;2.03;;
53931;SDS011;39844;52.496;13.482;2022-09-09T03:53:04;2.03;;;1.90;;
53931;SDS011;39844;52.496;13.482;2022-09-09T03:55:31;2.07;;;1.83;;
53931;SDS011;39844;52.496;13.482;2022-09-09T03:57:56;1.97;;;1.87;;
53931;SDS011;39844;52.496;13.482;2022-09-09T04:00:21;2.10;;;2.00;;
53931;SDS011;39844;52.496;13.482;2022-09-09T04:02:46;2.20;;;2.00;;
53931;SDS011;39844;52.496;13.482;2022-09-09T04:05:12;6.37;;;2.17;;
53931;SDS011;39844;52.496;13.482;2022-09-09T04:07:38;2.40;;;2.20;;
53931;SDS011;39844;52.496;13.482;2022-09-09T04:10:03;2.00;;;1.90;;
53931;SDS011;39844;52.496;13.482;2022-09-09T04:12:29;2.40;;;2.20;;
53931;SDS011;39844;52.496;13.482;2022-09-09T04:14:54;2.13;;;1.93;;
53931;SDS011;39844;52.496;13.482;2022-09-09T04:17:19;2.37;;;2.17;;
53931;SDS011;39844;52.496;13.482;2022-09-09T04:19:45;2.40;;;2.30;;
53931;SDS011;39844;52.496;13.482;2022-09-09T04:22:11;2.47;;;2.30;;
53931;SDS011;39844;52.496;13.482;2022-09-09T04:24:36;2.73;;;2.53;;
53931;SDS011;39844;52.496;13.482;2022-09-09T04:27:02;2.00;;;1.90;;
53931;SDS011;39844;52.496;13.482;2022-09-09T04:29:27;1.97;;;1.87;;
53931;SDS011;39844;52.496;13.482;2022-09-09T04:31:52;2.40;;;2.20;;
53931;SDS011;39844;52.496;13.482;2022-09-09T04:34:18;2.00;;;1.90;;
53931;SDS011;39844;52.496;13.482;2022-09-09T04:36:43;2.07;;;1.97;;
53931;SDS011;39844;52.496;13.482;2022-09-09T04:39:08;2.10;;;2.00;;
53931;SDS011;39844;52.496;13.482;2022-09-09T04:41:34;1.97;;;1.83;;
53931;SDS011;39844;52.496;13.482;2022-09-09T04:43:59;1.80;;;1.70;;
53931;SDS011;39844;52.496;13.482;2022-09-09T04:46:25;1.80;;;1.70;;
53931;SDS011;39844;52.496;13.482;2022-09-09T04:48:51;1.90;;;1.80;;
53931;SDS011;39844;52.496;13.482;2022-09-09T04:51:17;1.83;;;1.73;;
53931;SDS011;39844;52.496;13.482;2022-09-09T04:53:43;1.60;;;1.50;;
53931;SDS011;39844;52.496;13.482;2022-09-09T04:56:09;1.70;;;1.60;;
53931;SDS011;39844;52.496;13.482;2022-09-09T04:58:39;1.80;;;1.70;;
53931;SDS011;39844;52.496;13.482;2022-09-09T05:01:09;1.87;;;1.77;;
53931;SDS011;39844;52.496;13.482;2022-09-09T05:03:37;1.97;;;1.83;;
53931;SDS011;39844;52.496;13.482;2022-09-09T05:06:10;2.10;;;1.90;;
53931;SDS011;39844;52.496;13.482;2022-09-09T05:08:37;1.50;;;1.40;;
53931;SDS011;39844;52.496;13.482;2022-09-09T05:11:04;1.97;;;1.87;;
53931;SDS011;39844;52.496;13.482;2022-09-09T05:13:38;1.70;;;1.60;;
53931;SDS011;39844;52.496;13.482;2022-09-09T05:16:03;1.53;;;1.43;;
53931;SDS011;39844;52.496;13.482;2022-09-09T05:18:29;2.00;;;1.80;;
53931;SDS011;39844;52.496;13.482;2022-09-09T05:20:59;1.80;;;1.70;;
53931;SDS011;39844;52.496;13.482;2022-09-09T05:23:26;2.30;;;1.93;;
53931;SDS011;39844;52.496;13.482;2022-09-09T05:25:55;2.57;;;1.83;;
53931;SDS011;39844;52.496;13.482;2022-09-09T05:28:21;1.80;;;1.70;;
53931;SDS011;39844;52.496;13.482;2022-09-09T05:30:54;4.53;;;1.87;;
53931;SDS011;39844;52.496;13.482;2022-09-09T05:33:24;1.70;;;1.60;;
53931;SDS011;39844;52.496;13.482;2022-09-09T05:36:04;1.80;;;1.70;;
53931;SDS011;39844;52.496;13.482;2022-09-09T05:38:32;2.07;;;1.97;;
53931;SDS011;39844;52.496;13.482;2022-09-09T05:40:59;1.50;;;1.40;;
53931;SDS011;39844;52.496;13.482;2022-09-09T05:43:24;1.90;;;1.80;;
53931;SDS011;39844;52.496;13.482;2022-09-09T05:46:03;2.40;;;1.70;;
53931;SDS011;39844;52.496;13.482;2022-09-09T05:48:35;1.40;;;1.40;;
53931;SDS011;39844;52.496;13.482;2022-09-09T05:51:02;2.60;;;1.87;;
53931;SDS011;39844;52.496;13.482;2022-09-09T05:53:28;1.93;;;1.63;;
53931;SDS011;39844;52.496;13.482;2022-09-09T05:56:01;1.40;;;1.40;;
53931;SDS011;39844;52.496;13.482;2022-09-09T05:58:28;1.80;;;1.70;;
53931;SDS011;39844;52.496;13.482;2022-09-09T06:01:00;1.57;;;1.47;;
53931;SDS011;39844;52.496;13.482;2022-09-09T06:03:35;1.73;;;1.63;;
53931;SDS011;39844;52.496;13.482;2022-09-09T06:06:02;2.67;;;1.50;;
53931;SDS011;39844;52.496;13.482;2022-09-09T06:08:32;2.40;;;1.70;;
53931;SDS011;39844;52.496;13.482;2022-09-09T06:11:03;2.60;;;1.77;;
53931;SDS011;39844;52.496;13.482;2022-09-09T06:13:33;2.00;;;1.90;;
53931;SDS011;39844;52.496;13.482;2022-09-09T06:15:58;3.60;;;1.57;;
53931;SDS011;39844;52.496;13.482;2022-09-09T06:18:24;1.77;;;1.67;;
53931;SDS011;39844;52.496;13.482;2022-09-09T06:20:54;1.30;;;1.30;;
53931;SDS011;39844;52.496;13.482;2022-09-09T06:23:20;1.40;;;1.37;;
53931;SDS011;39844;52.496;13.482;2022-09-09T06:25:45;1.60;;;1.50;;
53931;SDS011;39844;52.496;13.482;2022-09-09T06:28:11;1.40;;;1.40;;
53931;SDS011;39844;52.496;13.482;2022-09-09T06:30:36;1.23;;;1.23;;
53931;SDS011;39844;52.496;13.482;2022-09-09T06:33:01;1.20;;;1.20;;
53931;SDS011;39844;52.496;13.482;2022-09-09T06:35:27;1.77;;;1.67;;
53931;SDS011;39844;52.496;13.482;2022-09-09T06:37:53;3.20;;;1.67;;
53931;SDS011;39844;52.496;13.482;2022-09-09T06:40:18;1.87;;;1.73;;
53931;SDS011;39844;52.496;13.482;2022-09-09T06:42:44;1.37;;;1.37;;
53931;SDS011;39844;52.496;13.482;2022-09-09T06:45:09;1.40;;;1.30;;
53931;SDS011;39844;52.496;13.482;2022-09-09T06:47:35;1.30;;;1.30;;
53931;SDS011;39844;52.496;13.482;2022-09-09T06:50:00;2.00;;;1.47;;
53931;SDS011;39844;52.496;13.482;2022-09-09T06:52:25;2.07;;;1.80;;
53931;SDS011;39844;52.496;13.482;2022-09-09T06:54:51;1.57;;;1.30;;
53931;SDS011;39844;52.496;13.482;2022-09-09T06:57:16;1.57;;;1.40;;
53931;SDS011;39844;52.496;13.482;2022-09-09T06:59:41;1.40;;;1.40;;
53931;SDS011;39844;52.496;13.482;2022-09-09T07:02:07;2.23;;;1.33;;
53931;SDS011;39844;52.496;13.482;2022-09-09T07:04:33;2.13;;;1.80;;
53931;SDS011;39844;52.496;13.482;2022-09-09T07:06:58;1.23;;;1.20;;
53931;SDS011;39844;52.496;13.482;2022-09-09T07:09:23;1.50;;;1.30;;
53931;SDS011;39844;52.496;13.482;2022-09-09T07:11:50;2.50;;;1.50;;
53931;SDS011;39844;52.496;13.482;2022-09-09T07:14:19;1.40;;;1.40;;
53931;SDS011;39844;52.496;13.482;2022-09-09T07:16:45;1.57;;;1.30;;
53931;SDS011;39844;52.496;13.482;2022-09-09T07:19:11;1.63;;;1.30;;
53931;SDS011;39844;52.496;13.482;2022-09-09T07:21:37;2.83;;;1.40;;
53931;SDS011;39844;52.496;13.482;2022-09-09T07:24:04;1.37;;;1.27;;
53931;SDS011;39844;52.496;13.482;2022-09-09T07:26:32;2.53;;;1.73;;
53931;SDS011;39844;52.496;13.482;2022-09-09T07:28:58;1.33;;;1.20;;
53931;SDS011;39844;52.496;13.482;2022-09-09T07:31:25;1.57;;;1.30;;
53931;SDS011;39844;52.496;13.482;2022-09-09T07:33:52;0.90;;;0.90;;
53931;SDS011;39844;52.496;13.482;2022-09-09T07:36:19;1.47;;;1.47;;
53931;SDS011;39844;52.496;13.482;2022-09-09T07:38:51;2.17;;;1.53;;
53931;SDS011;39844;52.496;13.482;2022-09-09T07:41:22;1.17;;;1.10;;
53931;SDS011;39844;52.496;13.482;2022-09-09T07:43:49;1.37;;;1.30;;
53931;SDS011;39844;52.496;13.482;2022-09-09T07:46:17;1.23;;;1.13;;
53931;SDS011;39844;52.496;13.482;2022-09-09T07:48:48;1.07;;;1.07;;
53931;SDS011;39844;52.496;13.482;2022-09-09T07:51:25;1.47;;;1.00;;
53931;SDS011;39844;52.496;13.482;2022-09-09T07:53:52;1.00;;;1.00;;
53931;SDS011;39844;52.496;13.482;2022-09-09T07:56:20;0.90;;;0.90;;
53931;SDS011;39844;52.496;13.482;2022-09-09T07:58:48;2.37;;;1.27;;
53931;SDS011;39844;52.496;13.482;2022-09-09T08:01:16;2.50;;;1.30;;
53931;SDS011;39844;52.496;13.482;2022-09-09T08:03:43;1.70;;;1.10;;
53931;SDS011;39844;52.496;13.482;2022-09-09T08:06:10;2.93;;;1.27;;
53931;SDS011;39844;52.496;13.482;2022-09-09T08:08:37;2.07;;;1.20;;
53931;SDS011;39844;52.496;13.482;2022-09-09T08:13:37;0.97;;;0.97;;
53931;SDS011;39844;52.496;13.482;2022-09-09T08:16:08;1.60;;;1.50;;
53931;SDS011;39844;52.496;13.482;2022-09-09T08:18:38;1.57;;;1.20;;
53931;SDS011;39844;52.496;13.482;2022-09-09T08:23:37;0.97;;;0.90;;
53931;SDS011;39844;52.496;13.482;2022-09-09T08:26:05;2.63;;;1.30;;
53931;SDS011;39844;52.496;13.482;2022-09-09T08:28:31;2.00;;;1.30;;
53931;SDS011;39844;52.496;13.482;2022-09-09T08:31:04;2.27;;;1.30;;
53931;SDS011;39844;52.496;13.482;2022-09-09T08:33:31;1.40;;;1.30;;
53931;SDS011;39844;52.496;13.482;2022-09-09T08:35:58;1.27;;;1.10;;
53931;SDS011;39844;52.496;13.482;2022-09-09T08:38:23;0.97;;;0.97;;
53931;SDS011;39844;52.496;13.482;2022-09-09T08:40:49;2.63;;;1.43;;
53931;SDS011;39844;52.496;13.482;2022-09-09T08:43:19;1.90;;;1.40;;
53931;SDS011;39844;52.496;13.482;2022-09-09T08:48:40;1.20;;;1.20;;
53931;SDS011;39844;52.496;13.482;2022-09-09T08:51:17;1.03;;;1.00;;
53931;SDS011;39844;52.496;13.482;2022-09-09T08:53:45;1.07;;;1.03;;
53931;SDS011;39844;52.496;13.482;2022-09-09T08:56:16;1.03;;;0.97;;
53931;SDS011;39844;52.496;13.482;2022-09-09T08:58:50;3.17;;;1.37;;
53931;SDS011;39844;52.496;13.482;2022-09-09T09:11:35;1.57;;;1.30;;
53931;SDS011;39844;52.496;13.482;2022-09-09T09:19:23;3.07;;;1.10;;
53931;SDS011;39844;52.496;13.482;2022-09-09T09:24:32;2.23;;;1.20;;
53931;SDS011;39844;52.496;13.482;2022-09-09T09:27:14;1.07;;;1.07;;
53931;SDS011;39844;52.496;13.482;2022-09-09T09:29:43;1.40;;;1.10;;
53931;SDS011;39844;52.496;13.482;2022-09-09T09:32:14;1.67;;;1.57;;
53931;SDS011;39844;52.496;13.482;2022-09-09T09:34:48;0.90;;;0.90;;
53931;SDS011;39844;52.496;13.482;2022-09-09T09:37:17;3.10;;;1.00;;
53931;SDS011;39844;52.496;13.482;2022-09-09T09:39:48;1.07;;;1.07;;
53931;SDS011;39844;52.496;13.482;2022-09-09T09:42:16;3.15;;;1.23;;
53931;SDS011;39844;52.496;13.482;2022-09-09T09:44:42;1.03;;;1.03;;
53931;SDS011;39844;52.496;13.482;2022-09-09T09:47:10;1.33;;;1.23;;
53931;SDS011;39844;52.496;13.482;2022-09-09T09:49:38;2.70;;;1.17;;
53931;SDS011;39844;52.496;13.482;2022-09-09T09:52:05;2.00;;;0.98;;
53931;SDS011;39844;52.496;13.482;2022-09-09T09:54:39;1.13;;;1.13;;
53931;SDS011;39844;52.496;13.482;2022-09-09T09:57:13;1.13;;;1.13;;
53931;SDS011;39844;52.496;13.482;2022-09-09T09:59:43;2.33;;;1.00;;
53931;SDS011;39844;52.496;13.482;2022-09-09T10:02:13;0.90;;;0.90;;
53931;SDS011;39844;52.496;13.482;2022-09-09T10:04:42;1.13;;;1.10;;
53931;SDS011;39844;52.496;13.482;2022-09-09T10:07:25;1.45;;;1.45;;
53931;SDS011;39844;52.496;13.482;2022-09-09T10:09:55;1.10;;;1.10;;
53931;SDS011;39844;52.496;13.482;2022-09-09T10:12:30;1.23;;;1.10;;
53931;SDS011;39844;52.496;13.482;2022-09-09T10:21:12;2.35;;;1.08;;
53931;SDS011;39844;52.496;13.482;2022-09-09T10:37:36;2.60;;;1.13;;
53931;SDS011;39844;52.496;13.482;2022-09-09T10:40:22;3.28;;;1.23;;
53931;SDS011;39844;52.496;13.482;2022-09-09T10:42:51;0.90;;;0.90;;
53931;SDS011;39844;52.496;13.482;2022-09-09T10:45:46;1.27;;;1.17;;
53931;SDS011;39844;52.496;13.482;2022-09-09T10:48:34;1.33;;;1.00;;
53931;SDS011;39844;52.496;13.482;2022-09-09T10:56:58;1.00;;;1.00;;
53931;SDS011;39844;52.496;13.482;2022-09-09T10:59:29;0.88;;;0.82;;
53931;SDS011;39844;52.496;13.482;2022-09-09T11:05:10;1.45;;;1.35;;
53931;SDS011;39844;52.496;13.482;2022-09-09T11:08:03;0.90;;;0.90;;
53931;SDS011;39844;52.496;13.482;2022-09-09T11:13:08;4.53;;;1.30;;
53931;SDS011;39844;52.496;13.482;2022-09-09T11:15:42;1.42;;;1.42;;
53931;SDS011;39844;52.496;13.482;2022-09-09T11:18:18;1.58;;;1.10;;
53931;SDS011;39844;52.496;13.482;2022-09-09T11:20:47;1.73;;;1.08;;
53931;SDS011;39844;52.496;13.482;2022-09-09T11:23:24;3.35;;;1.13;;
53931;SDS011;39844;52.496;13.482;2022-09-09T11:26:10;2.20;;;1.10;;
53931;SDS011;39844;52.496;13.482;2022-09-09T11:29:06;0.65;;;0.65;;
53931;SDS011;39844;52.496;13.482;2022-09-09T11:32:00;1.08;;;0.88;;
53931;SDS011;39844;52.496;13.482;2022-09-09T11:37:32;3.40;;;0.70;;
53931;SDS011;39844;52.496;13.482;2022-09-09T11:40:25;1.85;;;1.00;;
53931;SDS011;39844;52.496;13.482;2022-09-09T11:43:05;2.88;;;0.95;;
53931;SDS011;39844;52.496;13.482;2022-09-09T11:45:39;1.23;;;1.05;;
53931;SDS011;39844;52.496;13.482;2022-09-09T11:48:23;0.80;;;0.80;;
53931;SDS011;39844;52.496;13.482;2022-09-09T11:51:26;3.10;;;1.08;;
53931;SDS011;39844;52.496;13.482;2022-09-09T11:59:05;1.33;;;0.90;;
53931;SDS011;39844;52.496;13.482;2022-09-09T12:01:44;1.65;;;0.90;;
53931;SDS011;39844;52.496;13.482;2022-09-09T12:04:15;1.05;;;0.98;;
53931;SDS011;39844;52.496;13.482;2022-09-09T12:09:55;1.55;;;0.80;;
53931;SDS011;39844;52.496;13.482;2022-09-09T12:12:25;0.73;;;0.73;;
53931;SDS011;39844;52.496;13.482;2022-09-09T12:14:56;0.93;;;0.80;;
53931;SDS011;39844;52.496;13.482;2022-09-09T12:17:25;1.00;;;1.00;;
53931;SDS011;39844;52.496;13.482;2022-09-09T12:22:44;0.95;;;0.88;;
53931;SDS011;39844;52.496;13.482;2022-09-09T12:25:26;2.45;;;0.85;;
53931;SDS011;39844;52.496;13.482;2022-09-09T12:28:00;0.70;;;0.70;;
53931;SDS011;39844;52.496;13.482;2022-09-09T12:30:46;1.67;;;0.80;;
53931;SDS011;39844;52.496;13.482;2022-09-09T12:33:33;2.05;;;0.75;;
53931;SDS011;39844;52.496;13.482;2022-09-09T12:36:00;0.75;;;0.75;;
53931;SDS011;39844;52.496;13.482;2022-09-09T12:38:39;2.28;;;0.63;;
53931;SDS011;39844;52.496;13.482;2022-09-09T12:41:15;0.57;;;0.57;;
53931;SDS011;39844;52.496;13.482;2022-09-09T12:43:44;1.38;;;0.77;;
53931;SDS011;39844;52.496;13.482;2022-09-09T12:46:12;0.90;;;0.90;;
53931;SDS011;39844;52.496;13.482;2022-09-09T12:48:55;0.55;;;0.55;;
53931;SDS011;39844;52.496;13.482;2022-09-09T12:53:50;0.70;;;0.70;;
53931;SDS011;39844;52.496;13.482;2022-09-09T12:56:20;0.45;;;0.45;;
53931;SDS011;39844;52.496;13.482;2022-09-09T12:58:51;2.20;;;0.70;;
53931;SDS011;39844;52.496;13.482;2022-09-09T13:01:20;0.85;;;0.73;;
53931;SDS011;39844;52.496;13.482;2022-09-09T13:03:47;0.55;;;0.50;;
53931;SDS011;39844;52.496;13.482;2022-09-09T13:06:17;0.90;;;0.60;;
53931;SDS011;39844;52.496;13.482;2022-09-09T13:08:47;1.75;;;0.80;;
53931;SDS011;39844;52.496;13.482;2022-09-09T13:11:14;0.70;;;0.65;;
53931;SDS011;39844;52.496;13.482;2022-09-09T13:13:49;0.70;;;0.70;;
53931;SDS011;39844;52.496;13.482;2022-09-09T13:16:34;0.98;;;0.70;;
53931;SDS011;39844;52.496;13.482;2022-09-09T13:19:02;1.73;;;1.10;;
53931;SDS011;39844;52.496;13.482;2022-09-09T13:21:33;0.55;;;0.55;;
53931;SDS011;39844;52.496;13.482;2022-09-09T13:24:00;1.63;;;0.80;;
53931;SDS011;39844;52.496;13.482;2022-09-09T13:26:29;0.60;;;0.60;;
53931;SDS011;39844;52.496;13.482;2022-09-09T13:28:55;1.75;;;0.65;;
53931;SDS011;39844;52.496;13.482;2022-09-09T13:31:39;2.10;;;0.52;;
53931;SDS011;39844;52.496;13.482;2022-09-09T13:34:12;0.30;;;0.30;;
53931;SDS011;39844;52.496;13.482;2022-09-09T13:36:56;1.30;;;0.70;;
53931;SDS011;39844;52.496;13.482;2022-09-09T13:39:27;0.85;;;0.65;;
53931;SDS011;39844;52.496;13.482;2022-09-09T13:41:52;0.63;;;0.63;;
53931;SDS011;39844;52.496;13.482;2022-09-09T13:44:23;0.60;;;0.60;;
53931;SDS011;39844;52.496;13.482;2022-09-09T13:47:06;0.60;;;0.60;;
53931;SDS011;39844;52.496;13.482;2022-09-09T13:49:43;1.85;;;0.82;;
53931;SDS011;39844;52.496;13.482;2022-09-09T13:52:14;0.70;;;0.70;;
53931;SDS011;39844;52.496;13.482;2022-09-09T13:54:50;1.90;;;0.60;;
53931;SDS011;39844;52.496;13.482;2022-09-09T13:57:21;5.22;;;0.70;;
53931;SDS011;39844;52.496;13.482;2022-09-09T13:59:48;2.28;;;0.95;;
53931;SDS011;39844;52.496;13.482;2022-09-09T14:02:16;0.52;;;0.52;;
53931;SDS011;39844;52.496;13.482;2022-09-09T14:04:41;0.65;;;0.60;;
53931;SDS011;39844;52.496;13.482;2022-09-09T14:07:11;0.35;;;0.35;;
53931;SDS011;39844;52.496;13.482;2022-09-09T14:09:38;0.80;;;0.80;;
53931;SDS011;39844;52.496;13.482;2022-09-09T14:12:05;0.70;;;0.70;;
53931;SDS011;39844;52.496;13.482;2022-09-09T14:14:34;0.40;;;0.40;;
53931;SDS011;39844;52.496;13.482;2022-09-09T14:17:00;1.95;;;0.65;;
53931;SDS011;39844;52.496;13.482;2022-09-09T14:19:25;0.65;;;0.65;;
53931;SDS011;39844;52.496;13.482;2022-09-09T14:21:51;1.02;;;0.80;;
53931;SDS011;39844;52.496;13.482;2022-09-09T14:24:17;0.60;;;0.60;;
53931;SDS011;39844;52.496;13.482;2022-09-09T14:26:42;1.30;;;0.82;;
53931;SDS011;39844;52.496;13.482;2022-09-09T14:29:13;0.63;;;0.60;;
53931;SDS011;39844;52.496;13.482;2022-09-09T14:31:38;0.50;;;0.50;;
53931;SDS011;39844;52.496;13.482;2022-09-09T14:34:12;1.05;;;0.80;;
53931;SDS011;39844;52.496;13.482;2022-09-09T14:36:41;2.10;;;0.70;;
53931;SDS011;39844;52.496;13.482;2022-09-09T14:39:09;0.88;;;0.85;;
53931;SDS011;39844;52.496;13.482;2022-09-09T14:41:34;2.30;;;0.80;;
53931;SDS011;39844;52.496;13.482;2022-09-09T14:44:00;0.63;;;0.63;;
53931;SDS011;39844;52.496;13.482;2022-09-09T14:46:25;0.70;;;0.65;;
53931;SDS011;39844;52.496;13.482;2022-09-09T14:48:51;0.40;;;0.40;;
53931;SDS011;39844;52.496;13.482;2022-09-09T14:51:18;0.60;;;0.60;;
53931;SDS011;39844;52.496;13.482;2022-09-09T14:53:47;1.17;;;0.60;;
53931;SDS011;39844;52.496;13.482;2022-09-09T14:56:16;1.10;;;0.70;;
53931;SDS011;39844;52.496;13.482;2022-09-09T14:58:43;0.88;;;0.70;;
53931;SDS011;39844;52.496;13.482;2022-09-09T15:01:10;1.23;;;0.75;;
53931;SDS011;39844;52.496;13.482;2022-09-09T15:03:38;1.10;;;0.90;;
53931;SDS011;39844;52.496;13.482;2022-09-09T15:06:05;0.95;;;0.80;;
53931;SDS011;39844;52.496;13.482;2022-09-09T15:08:40;0.80;;;0.70;;
53931;SDS011;39844;52.496;13.482;2022-09-09T15:11:07;0.98;;;0.70;;
53931;SDS011;39844;52.496;13.482;2022-09-09T15:13:36;3.67;;;0.80;;
53931;SDS011;39844;52.496;13.482;2022-09-09T15:16:06;2.08;;;0.70;;
53931;SDS011;39844;52.496;13.482;2022-09-09T15:18:33;1.15;;;0.77;;
53931;SDS011;39844;52.496;13.482;2022-09-09T15:21:01;2.45;;;0.80;;
53931;SDS011;39844;52.496;13.482;2022-09-09T15:23:33;0.68;;;0.68;;
53931;SDS011;39844;52.496;13.482;2022-09-09T15:26:02;1.25;;;1.00;;
53931;SDS011;39844;52.496;13.482;2022-09-09T15:28:27;0.68;;;0.68;;
53931;SDS011;39844;52.496;13.482;2022-09-09T15:30:53;1.13;;;0.80;;
53931;SDS011;39844;52.496;13.482;2022-09-09T15:33:19;1.65;;;0.80;;
53931;SDS011;39844;52.496;13.482;2022-09-09T15:35:45;0.60;;;0.60;;
53931;SDS011;39844;52.496;13.482;2022-09-09T15:38:11;1.35;;;0.70;;
53931;SDS011;39844;52.496;13.482;2022-09-09T15:40:41;0.90;;;0.73;;
53931;SDS011;39844;52.496;13.482;2022-09-09T15:43:07;2.50;;;0.60;;
53931;SDS011;39844;52.496;13.482;2022-09-09T15:45:35;1.25;;;0.70;;
53931;SDS011;39844;52.496;13.482;2022-09-09T15:48:02;0.85;;;0.70;;
53931;SDS011;39844;52.496;13.482;2022-09-09T15:50:28;1.20;;;0.70;;
53931;SDS011;39844;52.496;13.482;2022-09-09T15:52:56;0.75;;;0.75;;
53931;SDS011;39844;52.496;13.482;2022-09-09T15:55:21;0.60;;;0.60;;
53931;SDS011;39844;52.496;13.482;2022-09-09T15:57:49;0.98;;;0.55;;
53931;SDS011;39844;52.496;13.482;2022-09-09T16:00:14;1.00;;;0.63;;
53931;SDS011;39844;52.496;13.482;2022-09-09T16:02:40;0.60;;;0.60;;
53931;SDS011;39844;52.496;13.482;2022-09-09T16:05:05;0.60;;;0.60;;
53931;SDS011;39844;52.496;13.482;2022-09-09T16:07:31;2.40;;;0.70;;
53931;SDS011;39844;52.496;13.482;2022-09-09T16:09:56;0.88;;;0.80;;
53931;SDS011;39844;52.496;13.482;2022-09-09T16:12:21;0.75;;;0.60;;
53931;SDS011;39844;52.496;13.482;2022-09-09T16:14:47;3.03;;;0.90;;
53931;SDS011;39844;52.496;13.482;2022-09-09T16:17:12;2.97;;;0.77;;
53931;SDS011;39844;52.496;13.482;2022-09-09T16:19:39;1.05;;;0.80;;
53931;SDS011;39844;52.496;13.482;2022-09-09T16:22:04;0.82;;;0.82;;
53931;SDS011;39844;52.496;13.482;2022-09-09T16:24:31;0.80;;;0.80;;
53931;SDS011;39844;52.496;13.482;2022-09-09T16:26:57;0.70;;;0.60;;
53931;SDS011;39844;52.496;13.482;2022-09-09T16:29:22;2.08;;;0.70;;
53931;SDS011;39844;52.496;13.482;2022-09-09T16:31:49;1.00;;;0.75;;
53931;SDS011;39844;52.496;13.482;2022-09-09T16:34:15;1.08;;;0.60;;
53931;SDS011;39844;52.496;13.482;2022-09-09T16:36:42;2.05;;;0.60;;
53931;SDS011;39844;52.496;13.482;2022-09-09T16:39:12;0.73;;;0.73;;
53931;SDS011;39844;52.496;13.482;2022-09-09T16:41:39;0.68;;;0.68;;
53931;SDS011;39844;52.496;13.482;2022-09-09T16:44:06;0.57;;;0.57;;
53931;SDS011;39844;52.496;13.482;2022-09-09T16:46:34;2.72;;;1.08;;
53931;SDS011;39844;52.496;13.482;2022-09-09T16:49:02;1.17;;;1.08;;